createdAt,value
2023-09-23T06:59:31.141Z,94.66
2023-09-23T07:00:32.204Z,94.46
2023-09-23T07:01:32.283Z,94.05
2023-09-23T07:02:32.375Z,94.01
2023-09-23T07:03:32.430Z,94.72
2023-09-23T07:04:32.485Z,92.79
2023-09-23T07:05:32.640Z,94.01
2023-09-23T07:06:32.624Z,93.50
2023-09-23T07:07:32.712Z,92.27
2023-09-23T07:08:32.848Z,92.74
2023-09-23T07:09:32.885Z,92.44
2023-09-23T07:10:32.977Z,92.54
2023-09-23T07:11:33.023Z,91.83
2023-09-23T07:12:33.111Z,92.03
2023-09-23T07:13:33.204Z,92.33
2023-09-23T07:14:33.330Z,92.84
2023-09-23T07:15:33.364Z,92.33
2023-09-23T07:16:33.478Z,91.88
2023-09-23T07:17:33.681Z,91.27
2023-09-23T07:18:36.885Z,92.49
2023-09-23T07:19:33.722Z,91.84
2023-09-23T07:20:33.858Z,92.96
2023-09-23T07:21:33.879Z,91.64
2023-09-23T07:22:33.923Z,91.64
2023-09-23T07:24:34.075Z,90.22
2023-09-23T07:25:34.161Z,92.45
2023-09-23T07:26:34.278Z,90.72
2023-09-23T07:27:34.313Z,90.11
2023-09-23T07:28:34.464Z,91.43
2023-09-23T07:29:34.480Z,90.42
2023-09-23T07:30:34.596Z,90.52
2023-09-23T07:31:34.640Z,89.30
2023-09-23T07:32:34.772Z,90.46
2023-09-23T07:33:34.776Z,90.36
2023-09-23T07:34:34.891Z,91.43
2023-09-23T07:35:35.040Z,91.38
2023-09-23T07:36:35.169Z,90.97
2023-09-23T07:37:35.128Z,91.58
2023-09-23T07:38:35.242Z,91.13
2023-09-23T07:39:35.301Z,90.83
2023-09-23T07:40:35.372Z,91.53
2023-09-23T07:41:35.524Z,91.84
2023-09-23T07:42:35.541Z,90.88
2023-09-23T07:43:35.576Z,90.07
2023-09-23T07:44:35.692Z,89.76
2023-09-23T07:45:35.733Z,89.97
2023-09-23T07:46:35.824Z,89.61
2023-09-23T07:47:35.989Z,89.91
2023-09-23T07:48:35.962Z,91.49
2023-09-23T07:49:36.047Z,89.46
2023-09-23T07:50:36.199Z,89.76
2023-09-23T07:51:36.228Z,90.07
2023-09-23T07:52:36.312Z,89.36
2023-09-23T07:53:36.401Z,89.26
2023-09-23T07:54:36.478Z,89.26
2023-09-23T07:55:36.527Z,89.26
2023-09-23T07:56:36.652Z,89.01
2023-09-23T07:57:36.706Z,89.42
2023-09-23T07:58:36.805Z,90.74
2023-09-23T07:59:36.880Z,87.49
2023-09-23T08:00:36.942Z,88.10
2023-09-23T08:01:37.069Z,87.69
2023-09-23T08:02:37.216Z,88.60
2023-09-23T08:03:37.239Z,88.91
2023-09-23T08:04:37.292Z,87.69
2023-09-23T08:05:37.441Z,88.91
2023-09-23T08:06:39.338Z,88.81
2023-09-23T08:07:37.516Z,88.20
2023-09-23T08:08:37.602Z,88.81
2023-09-23T08:09:37.705Z,88.20
2023-09-23T08:10:37.744Z,88.65
2023-09-23T08:11:37.818Z,88.10
2023-09-23T08:12:37.908Z,88.91
2023-09-23T08:13:37.987Z,88.91
2023-09-23T08:14:38.098Z,89.01
2023-09-23T08:15:38.192Z,88.91
2023-09-23T08:16:38.273Z,87.99
2023-09-23T08:17:38.409Z,89.01
2023-09-23T08:18:38.420Z,88.91
2023-09-23T08:19:38.500Z,89.42
2023-09-23T08:20:38.684Z,88.95
2023-09-23T08:21:38.683Z,88.75
2023-09-23T08:22:38.766Z,88.13
2023-09-23T08:23:38.857Z,89.46
2023-09-23T08:24:39.051Z,88.95
2023-09-23T08:25:38.998Z,90.07
2023-09-23T08:26:39.067Z,88.65
2023-09-23T08:27:39.131Z,89.66
2023-09-23T08:28:39.211Z,89.05
2023-09-23T08:29:39.304Z,89.36
2023-09-23T08:30:39.360Z,88.85
2023-09-23T08:31:39.474Z,88.24
2023-09-23T08:32:39.611Z,88.95
2023-09-23T08:33:39.627Z,89.46
2023-09-23T08:34:39.728Z,89.31
2023-09-23T08:35:39.851Z,88.71
2023-09-23T08:36:39.895Z,88.75
2023-09-23T08:37:39.977Z,88.95
2023-09-23T08:38:40.043Z,89.11
2023-09-23T08:39:40.134Z,88.95
2023-09-23T08:40:40.210Z,88.85
2023-09-23T08:41:40.293Z,88.85
2023-09-23T08:42:40.381Z,89.66
2023-09-23T08:43:40.465Z,89.26
2023-09-23T08:44:40.647Z,90.33
2023-09-23T08:45:40.701Z,91.05
2023-09-23T08:46:40.722Z,90.23
2023-09-23T08:47:40.902Z,88.91
2023-09-23T08:48:40.891Z,88.10
2023-09-23T08:49:41.049Z,90.03
2023-09-23T08:50:41.046Z,89.31
2023-09-23T08:51:41.140Z,89.11
2023-09-23T08:52:41.285Z,89.01
2023-09-23T08:53:41.316Z,87.89
2023-09-23T08:54:41.407Z,89.22
2023-09-23T08:55:41.497Z,88.81
2023-09-23T08:56:41.560Z,88.30
2023-09-23T08:57:41.641Z,88.10
2023-09-23T08:58:41.731Z,87.59
2023-09-23T08:59:41.846Z,87.69
2023-09-23T09:00:41.900Z,87.99
2023-09-23T09:01:42.065Z,88.60
2023-09-23T09:02:42.154Z,88.50
2023-09-23T09:03:42.148Z,89.46
2023-09-23T09:04:42.260Z,90.37
2023-09-23T09:05:42.531Z,91.29
2023-09-23T09:06:42.400Z,90.92
2023-09-23T09:07:42.472Z,91.53
2023-09-23T09:08:42.565Z,91.23
2023-09-23T09:09:42.675Z,91.23
2023-09-23T09:10:42.798Z,91.13
2023-09-23T09:11:42.863Z,90.92
2023-09-23T09:12:42.892Z,91.13
2023-09-23T09:13:42.966Z,91.09
2023-09-23T09:14:43.041Z,91.80
2023-09-23T09:15:43.220Z,90.88
2023-09-23T09:16:43.179Z,90.78
2023-09-23T09:17:43.305Z,90.37
2023-09-23T09:18:43.325Z,89.87
2023-09-23T09:19:43.399Z,90.37
2023-09-23T09:20:43.486Z,90.58
2023-09-23T09:21:43.570Z,89.56
2023-09-23T09:22:43.662Z,89.46
2023-09-23T09:23:43.759Z,90.13
2023-09-23T09:24:43.820Z,88.46
2023-09-23T09:25:43.919Z,87.95
2023-09-23T09:26:43.978Z,88.73
2023-09-23T09:27:44.050Z,87.40
2023-09-23T09:28:44.159Z,86.86
2023-09-23T09:29:44.240Z,85.74
2023-09-23T09:30:44.360Z,86.45
2023-09-23T09:31:44.483Z,87.16
2023-09-23T09:32:44.864Z,87.46
2023-09-23T09:33:44.562Z,86.25
2023-09-23T09:34:44.635Z,85.74
2023-09-23T09:35:44.750Z,86.15
2023-09-23T09:36:44.811Z,87.22
2023-09-23T09:37:44.916Z,86.00
2023-09-23T09:38:45.285Z,85.15
2023-09-23T09:39:45.092Z,85.36
2023-09-23T09:40:45.218Z,84.41
2023-09-23T09:41:45.259Z,84.10
2023-09-23T09:42:45.339Z,84.91
2023-09-23T09:43:45.425Z,83.59
2023-09-23T09:44:45.518Z,83.90
2023-09-23T09:45:45.769Z,85.21
2023-09-23T09:46:45.720Z,84.16
2023-09-23T09:47:45.868Z,84.06
2023-09-23T09:48:46.964Z,82.90
2023-09-23T09:49:46.154Z,83.03
2023-09-23T09:50:46.304Z,81.18
2023-09-23T09:51:46.123Z,81.79
2023-09-23T09:52:46.174Z,82.14
2023-09-23T09:53:46.246Z,82.24
2023-09-23T09:54:46.302Z,82.24
2023-09-23T09:55:46.385Z,82.14
2023-09-23T09:56:46.513Z,83.25
2023-09-23T09:57:46.576Z,83.65
2023-09-23T09:58:46.838Z,83.59
2023-09-23T09:59:46.757Z,83.49
2023-09-23T10:00:46.905Z,83.94
2023-09-23T10:01:46.932Z,84.44
2023-09-23T10:02:47.173Z,84.34
2023-09-23T10:03:47.318Z,84.24
2023-09-23T10:04:47.187Z,84.44
2023-09-23T10:05:47.266Z,83.29
2023-09-23T10:06:47.582Z,83.03
2023-09-23T10:07:47.539Z,82.68
2023-09-23T10:08:47.861Z,84.27
2023-09-23T10:09:47.608Z,82.40
2023-09-23T10:10:47.743Z,81.59
2023-09-23T10:11:47.788Z,80.58
2023-09-23T10:12:47.871Z,82.46
2023-09-23T10:13:47.950Z,80.34
2023-09-23T10:14:48.018Z,80.04
2023-09-23T10:15:48.107Z,82.10
2023-09-23T10:16:48.236Z,82.30
2023-09-23T10:17:48.449Z,80.78
2023-09-23T10:18:48.663Z,81.29
2023-09-23T10:19:48.407Z,81.29
2023-09-23T10:20:48.470Z,80.98
2023-09-23T10:21:48.605Z,80.21
2023-09-23T10:22:48.638Z,79.91
2023-09-23T10:23:48.794Z,80.92
2023-09-23T10:24:48.812Z,81.83
2023-09-23T10:25:48.908Z,81.29
2023-09-23T10:26:49.006Z,80.58
2023-09-23T10:27:49.078Z,80.34
2023-09-23T10:28:49.153Z,79.73
2023-09-23T10:29:49.281Z,80.04
2023-09-23T10:30:49.302Z,80.60
2023-09-23T10:31:49.349Z,78.34
2023-09-23T10:32:49.593Z,79.62
2023-09-23T10:33:49.751Z,75.70
2023-09-23T10:34:49.661Z,71.80
2023-09-23T10:35:49.673Z,74.90
2023-09-23T10:36:49.756Z,73.35
2023-09-23T10:37:49.863Z,75.57
2023-09-23T10:38:49.908Z,76.79
2023-09-23T10:39:49.987Z,76.99
2023-09-23T10:40:50.077Z,78.04
2023-09-23T10:41:50.161Z,77.33
2023-09-23T10:42:50.401Z,78.78
2023-09-23T10:43:50.325Z,77.70
2023-09-23T10:44:50.417Z,77.60
2023-09-23T10:45:50.491Z,75.78
2023-09-23T10:46:50.554Z,73.55
2023-09-23T10:47:50.668Z,72.41
2023-09-23T10:48:50.715Z,72.58
2023-09-23T10:49:52.106Z,74.76
2023-09-23T10:50:50.877Z,71.91
2023-09-23T10:51:50.971Z,72.81
2023-09-23T10:52:51.089Z,70.73
2023-09-23T10:53:51.172Z,68.55
2023-09-23T10:54:51.232Z,71.23
2023-09-23T10:55:51.311Z,70.89
2023-09-23T10:56:51.382Z,72.85
2023-09-23T10:57:51.511Z,70.12
2023-09-23T10:58:51.620Z,72.51
2023-09-23T10:59:51.663Z,72.20
2023-09-23T11:00:51.781Z,72.38
2023-09-23T11:01:51.916Z,73.66
2023-09-23T11:02:52.193Z,75.88
2023-09-23T11:03:52.065Z,75.27
2023-09-23T11:04:52.091Z,74.53
2023-09-23T11:05:52.162Z,71.91
2023-09-23T11:06:52.276Z,71.23
2023-09-23T11:07:52.344Z,71.97
2023-09-23T11:08:52.442Z,72.20
2023-09-23T11:09:52.503Z,71.91
2023-09-23T11:10:52.624Z,71.87
2023-09-23T11:11:52.700Z,73.28
2023-09-23T11:12:52.807Z,74.16
2023-09-23T11:13:52.897Z,75.60
2023-09-23T11:14:52.957Z,75.04
2023-09-23T11:15:53.024Z,75.07
2023-09-23T11:16:53.093Z,73.79
2023-09-23T11:17:53.184Z,75.24
2023-09-23T11:18:53.257Z,76.75
2023-09-23T11:19:53.312Z,76.15
2023-09-23T11:20:53.401Z,78.23
2023-09-23T11:21:53.514Z,74.32
2023-09-23T11:22:53.551Z,74.35
2023-09-23T11:23:53.638Z,72.14
2023-09-23T11:24:53.705Z,72.27
2023-09-23T11:25:53.797Z,69.35
2023-09-23T11:26:53.861Z,68.08
2023-09-23T11:27:53.964Z,68.75
2023-09-23T11:28:54.046Z,71.40
2023-09-23T11:29:54.112Z,74.09
2023-09-23T11:30:54.186Z,75.27
2023-09-23T11:31:54.269Z,72.98
2023-09-23T11:32:54.377Z,73.55
2023-09-23T11:33:54.434Z,73.96
2023-09-23T11:34:54.522Z,73.01
2023-09-23T11:35:54.665Z,74.36
2023-09-23T11:36:54.677Z,74.19
2023-09-23T11:37:54.771Z,74.63
2023-09-23T11:38:54.852Z,76.28
2023-09-23T11:39:54.930Z,76.18
2023-09-23T11:40:55.006Z,76.12
2023-09-23T11:41:55.093Z,76.52
2023-09-23T11:42:55.190Z,75.61
2023-09-23T11:43:55.435Z,75.81
2023-09-23T11:44:55.356Z,74.90
2023-09-23T11:45:55.428Z,75.07
2023-09-23T11:46:55.832Z,75.68
2023-09-23T11:47:55.601Z,75.07
2023-09-23T11:48:55.693Z,75.48
2023-09-23T11:49:55.898Z,75.34
2023-09-23T11:50:55.827Z,74.84
2023-09-23T11:51:55.930Z,73.58
2023-09-23T11:52:56.052Z,73.25
2023-09-23T11:53:56.161Z,73.25
2023-09-23T11:54:56.169Z,72.85
2023-09-23T11:55:56.210Z,72.38
2023-09-23T11:56:56.328Z,74.29
2023-09-23T11:57:56.387Z,73.28
2023-09-23T11:59:07.916Z,73.62
2023-09-23T11:59:56.589Z,73.69
2023-09-23T12:00:56.632Z,73.52
2023-09-23T12:01:56.769Z,75.04
2023-09-23T12:02:57.009Z,75.24
2023-09-23T12:03:57.022Z,74.22
2023-09-23T12:04:57.082Z,74.93
2023-09-23T12:05:57.114Z,75.37
2023-09-23T12:06:57.222Z,78.61
2023-09-23T12:07:57.208Z,75.78
2023-09-23T12:08:57.282Z,76.02
2023-09-23T12:09:57.368Z,75.61
2023-09-23T12:10:57.460Z,76.62
2023-09-23T12:11:57.567Z,76.32
2023-09-23T12:12:57.631Z,76.72
2023-09-23T12:13:57.717Z,75.92
2023-09-23T12:14:57.780Z,76.52
2023-09-23T12:15:57.868Z,76.72
2023-09-23T12:16:57.992Z,76.62
2023-09-23T12:17:58.171Z,75.65
2023-09-23T12:18:58.084Z,76.26
2023-09-23T12:19:58.217Z,76.52
2023-09-23T12:20:58.235Z,76.12
2023-09-23T12:21:58.384Z,75.10
2023-09-23T12:22:58.637Z,74.80
2023-09-23T12:23:58.481Z,74.57
2023-09-23T12:24:58.578Z,73.96
2023-09-23T12:25:58.712Z,72.91
2023-09-23T12:26:58.692Z,73.93
2023-09-23T12:27:59.770Z,73.82
2023-09-23T12:28:58.836Z,74.84
2023-09-23T12:29:58.878Z,73.22
2023-09-23T12:30:58.983Z,74.02
2023-09-23T12:31:59.061Z,73.42
2023-09-23T12:32:59.147Z,74.02
2023-09-23T12:33:59.234Z,73.86
2023-09-23T12:34:59.326Z,74.84
2023-09-23T12:35:59.356Z,74.13
2023-09-23T12:36:59.465Z,72.98
2023-09-23T12:37:59.587Z,73.99
2023-09-23T12:38:59.651Z,72.98
2023-09-23T12:39:59.771Z,72.34
2023-09-23T12:40:59.839Z,72.34
2023-09-23T12:41:59.881Z,71.13
2023-09-23T12:43:00.127Z,72.51
2023-09-23T12:44:00.057Z,71.47
2023-09-23T12:45:01.235Z,68.31
2023-09-23T12:46:00.294Z,68.11
2023-09-23T12:47:00.328Z,68.15
2023-09-23T12:48:00.554Z,69.09
2023-09-23T12:49:00.549Z,69.12
2023-09-23T12:50:01.354Z,70.06
2023-09-23T12:51:00.638Z,71.60
2023-09-23T12:52:00.712Z,72.58
2023-09-23T12:53:00.837Z,71.87
2023-09-23T12:54:00.933Z,69.65
2023-09-23T12:55:01.004Z,70.29
2023-09-23T12:56:01.152Z,71.60
2023-09-23T12:57:01.202Z,71.64
2023-09-23T12:58:01.336Z,72.85
2023-09-23T12:59:01.444Z,72.85
2023-09-23T13:00:01.522Z,72.17
2023-09-23T13:01:01.573Z,73.99
2023-09-23T13:02:01.645Z,74.76
2023-09-23T13:03:01.796Z,72.20
2023-09-23T13:04:01.901Z,72.17
2023-09-23T13:05:01.931Z,71.23
2023-09-23T13:06:02.035Z,70.93
2023-09-23T13:07:02.044Z,70.76
2023-09-23T13:08:02.156Z,71.47
2023-09-23T13:09:02.223Z,72.58
2023-09-23T13:10:02.299Z,70.86
2023-09-23T13:11:02.442Z,72.47
2023-09-23T13:12:02.445Z,69.85
2023-09-23T13:13:02.519Z,70.53
2023-09-23T13:14:02.622Z,69.92
2023-09-23T13:15:02.716Z,72.34
2023-09-23T13:16:02.913Z,70.42
2023-09-23T13:17:02.932Z,70.22
2023-09-23T13:18:02.916Z,70.19
2023-09-23T13:19:03.061Z,71.13
2023-09-23T13:20:03.113Z,73.82
2023-09-23T13:21:03.194Z,72.51
2023-09-23T13:22:03.250Z,72.41
2023-09-23T13:23:04.067Z,71.40
2023-09-23T13:24:03.393Z,74.12
2023-09-23T13:25:03.586Z,72.38
2023-09-23T13:26:03.662Z,72.38
2023-09-23T13:27:03.614Z,72.58
2023-09-23T13:28:03.697Z,72.78
2023-09-23T13:29:03.800Z,72.27
2023-09-23T13:30:03.885Z,71.60
2023-09-23T13:31:03.997Z,73.32
2023-09-23T13:32:04.049Z,74.80
2023-09-23T13:33:04.199Z,72.61
2023-09-23T13:34:07.059Z,73.42
2023-09-23T13:35:04.339Z,74.40
2023-09-23T13:36:04.381Z,73.38
2023-09-23T13:37:04.446Z,72.78
2023-09-23T13:38:04.539Z,74.66
2023-09-23T13:39:04.589Z,71.73
2023-09-23T13:40:04.695Z,72.44
2023-09-23T13:41:04.804Z,71.37
2023-09-23T13:42:04.865Z,72.48
2023-09-23T13:43:04.977Z,74.16
2023-09-23T13:44:05.066Z,73.79
2023-09-23T13:45:05.121Z,73.69
2023-09-23T13:46:05.253Z,74.84
2023-09-23T13:47:05.409Z,75.34
2023-09-23T13:48:05.518Z,75.74
2023-09-23T13:49:05.438Z,76.28
2023-09-23T13:50:05.575Z,76.32
2023-09-23T13:51:08.143Z,75.10
2023-09-23T13:52:05.712Z,76.02
2023-09-23T13:53:05.849Z,75.85
2023-09-23T13:54:05.881Z,77.57
2023-09-23T13:55:05.953Z,77.17
2023-09-23T13:56:06.066Z,77.17
2023-09-23T13:57:06.117Z,77.37
2023-09-23T13:58:06.212Z,77.26
2023-09-23T13:59:06.337Z,77.97
2023-09-23T14:00:06.382Z,78.88
2023-09-23T14:01:06.520Z,78.08
2023-09-23T14:02:06.583Z,78.99
2023-09-23T14:03:06.666Z,77.77
2023-09-23T14:04:06.739Z,79.39
2023-09-23T14:05:06.823Z,77.40
2023-09-23T14:06:06.891Z,77.30
2023-09-23T14:07:06.931Z,77.20
2023-09-23T14:08:07.025Z,76.79
2023-09-23T14:09:07.088Z,77.87
2023-09-23T14:10:20.630Z,78.68
2023-09-23T14:11:07.366Z,78.28
2023-09-23T14:12:07.327Z,77.57
2023-09-23T14:13:07.407Z,77.87
2023-09-23T14:14:07.504Z,77.67
2023-09-23T14:15:07.573Z,77.67
2023-09-23T14:16:07.699Z,78.58
2023-09-23T14:17:07.747Z,79.59
2023-09-23T14:18:09.133Z,77.97
2023-09-23T14:19:07.986Z,78.17
2023-09-23T14:20:07.999Z,76.86
2023-09-23T14:21:08.072Z,79.55
2023-09-23T14:22:08.154Z,79.25
2023-09-23T14:23:08.310Z,78.24
2023-09-23T14:24:08.327Z,77.64
2023-09-23T14:25:08.392Z,76.89
2023-09-23T14:26:08.559Z,77.90
2023-09-23T14:27:08.590Z,76.55
2023-09-23T14:28:08.685Z,77.76
2023-09-23T14:29:08.762Z,78.06
2023-09-23T14:30:08.811Z,75.74
2023-09-23T14:31:08.970Z,76.86
2023-09-23T14:32:09.011Z,76.95
2023-09-23T14:33:09.111Z,75.27
2023-09-23T14:34:09.143Z,76.79
2023-09-23T14:35:09.247Z,76.39
2023-09-23T14:36:09.302Z,76.52
2023-09-23T14:37:09.385Z,78.55
2023-09-23T14:38:09.498Z,78.14
2023-09-23T14:39:09.539Z,79.25
2023-09-23T14:40:09.615Z,79.59
2023-09-23T14:41:10.023Z,78.99
2023-09-23T14:42:09.789Z,79.29
2023-09-23T14:43:09.871Z,80.74
2023-09-23T14:44:10.001Z,81.05
2023-09-23T14:45:10.074Z,82.16
2023-09-23T14:46:10.175Z,83.13
2023-09-23T14:47:10.250Z,82.93
2023-09-23T14:48:10.329Z,83.23
2023-09-23T14:49:10.365Z,82.79
2023-09-23T14:50:10.475Z,84.17
2023-09-23T14:51:10.524Z,84.37
2023-09-23T14:52:10.607Z,83.36
2023-09-23T14:53:10.733Z,81.57
2023-09-23T14:54:10.748Z,82.39
2023-09-23T14:55:10.847Z,81.82
2023-09-23T14:56:10.973Z,82.22
2023-09-23T14:57:11.009Z,85.25
2023-09-23T14:58:11.085Z,85.50
2023-09-23T14:59:11.232Z,83.11
2023-09-23T15:00:11.261Z,82.10
2023-09-23T15:01:11.359Z,84.42
2023-09-23T15:02:11.471Z,84.22
2023-09-23T15:03:11.584Z,83.21
2023-09-23T15:04:11.724Z,83.72
2023-09-23T15:05:11.702Z,83.92
2023-09-23T15:06:11.719Z,84.02
2023-09-23T15:07:11.835Z,85.24
2023-09-23T15:08:11.901Z,85.19
2023-09-23T15:09:11.988Z,85.80
2023-09-23T15:10:12.086Z,82.36
2023-09-23T15:11:12.138Z,83.47
2023-09-23T15:12:12.201Z,83.21
2023-09-23T15:13:12.289Z,85.54
2023-09-23T15:14:12.438Z,86.25
2023-09-23T15:15:12.457Z,83.72
2023-09-23T15:16:12.559Z,83.37
2023-09-23T15:17:12.588Z,83.78
2023-09-23T15:18:12.720Z,84.19
2023-09-23T15:19:12.746Z,82.06
2023-09-23T15:20:12.854Z,83.98
2023-09-23T15:21:12.900Z,83.07
2023-09-23T15:22:12.977Z,82.36
2023-09-23T15:23:13.084Z,82.87
2023-09-23T15:24:13.128Z,83.37
2023-09-23T15:25:13.217Z,82.46
2023-09-23T15:26:13.343Z,81.85
2023-09-23T15:27:13.372Z,81.25
2023-09-23T15:28:13.444Z,81.18
2023-09-23T15:29:13.545Z,81.69
2023-09-23T15:30:13.638Z,81.79
2023-09-23T15:31:13.740Z,82.06
2023-09-23T15:32:13.865Z,80.07
2023-09-23T15:33:14.000Z,81.29
2023-09-23T15:34:14.014Z,82.06
2023-09-23T15:35:14.091Z,81.05
2023-09-23T15:36:14.170Z,80.84
2023-09-23T15:37:14.205Z,81.55
2023-09-23T15:38:14.380Z,79.93
2023-09-23T15:39:14.381Z,79.73
2023-09-23T15:40:14.476Z,80.60
2023-09-23T15:41:14.578Z,79.69
2023-09-23T15:42:14.648Z,79.90
2023-09-23T15:43:14.750Z,79.46
2023-09-23T15:44:14.842Z,78.75
2023-09-23T15:45:14.916Z,77.84
2023-09-23T15:46:15.039Z,80.06
2023-09-23T15:47:15.084Z,78.64
2023-09-23T15:48:15.250Z,77.60
2023-09-23T15:49:15.264Z,77.53
2023-09-23T15:50:15.382Z,76.62
2023-09-23T15:51:15.406Z,76.72
2023-09-23T15:52:15.504Z,78.50
2023-09-23T15:53:15.621Z,76.52
2023-09-23T15:54:15.636Z,77.43
2023-09-23T15:55:15.709Z,76.62
2023-09-23T15:56:15.820Z,78.14
2023-09-23T15:57:15.883Z,77.53
2023-09-23T15:58:15.986Z,78.04
2023-09-23T15:59:16.046Z,78.24
2023-09-23T16:00:16.132Z,78.44
2023-09-23T16:01:16.228Z,78.44
2023-09-23T16:02:16.379Z,78.28
2023-09-23T16:03:16.757Z,79.59
2023-09-23T16:04:16.578Z,78.88
2023-09-23T16:05:16.684Z,78.88
2023-09-23T16:06:16.663Z,79.59
2023-09-23T16:07:16.742Z,80.00
2023-09-23T16:08:16.877Z,79.43
2023-09-23T16:09:16.920Z,79.63
2023-09-23T16:10:17.020Z,80.44
2023-09-23T16:11:17.138Z,81.05
2023-09-23T16:12:17.199Z,81.15
2023-09-23T16:13:17.275Z,79.53
2023-09-23T16:14:17.407Z,80.13
2023-09-23T16:15:17.420Z,80.38
2023-09-23T16:16:17.596Z,80.27
2023-09-23T16:17:17.724Z,80.78
2023-09-23T16:18:20.021Z,80.88
2023-09-23T16:19:17.782Z,81.99
2023-09-23T16:20:17.914Z,81.69
2023-09-23T16:21:17.937Z,80.98
2023-09-23T16:22:18.004Z,80.98
2023-09-23T16:23:18.169Z,81.39
2023-09-23T16:24:18.216Z,80.98
2023-09-23T16:25:18.305Z,80.98
2023-09-23T16:26:18.345Z,81.43
2023-09-23T16:27:18.384Z,81.02
2023-09-23T16:28:18.489Z,82.44
2023-09-23T16:29:18.579Z,82.14
2023-09-23T16:30:18.673Z,81.83
2023-09-23T16:31:18.771Z,82.24
2023-09-23T16:32:18.787Z,83.25
2023-09-23T16:33:18.878Z,82.24
2023-09-23T16:34:18.924Z,82.24
2023-09-23T16:35:19.042Z,82.54
2023-09-23T16:36:19.104Z,83.15
2023-09-23T16:37:19.171Z,82.44
2023-09-23T16:38:19.294Z,83.65
2023-09-23T16:39:19.326Z,83.96
2023-09-23T16:40:19.459Z,83.45
2023-09-23T16:41:19.820Z,83.04
2023-09-23T16:42:19.597Z,83.15
2023-09-23T16:43:19.663Z,83.65
2023-09-23T16:44:19.774Z,84.27
2023-09-23T16:45:19.853Z,84.00
2023-09-23T16:46:19.980Z,83.59
2023-09-23T16:47:20.070Z,83.90
2023-09-23T16:48:20.159Z,83.69
2023-09-23T16:49:20.150Z,83.90
2023-09-23T16:50:20.280Z,84.70
2023-09-23T16:51:20.339Z,83.39
2023-09-23T16:52:20.402Z,83.39
2023-09-23T16:53:20.558Z,84.61
2023-09-23T16:54:20.547Z,85.42
2023-09-23T16:55:20.633Z,86.22
2023-09-23T16:56:20.816Z,85.21
2023-09-23T16:57:20.786Z,84.50
2023-09-23T16:58:20.865Z,84.61
2023-09-23T16:59:20.985Z,85.01
2023-09-23T17:00:21.030Z,85.42
2023-09-23T17:01:21.280Z,84.30
2023-09-23T17:02:21.289Z,85.01
2023-09-23T17:03:21.368Z,85.21
2023-09-23T17:04:21.365Z,85.93
2023-09-23T17:05:21.469Z,86.13
2023-09-23T17:06:22.953Z,85.52
2023-09-23T17:07:21.553Z,86.73
2023-09-23T17:08:21.681Z,85.86
2023-09-23T17:09:21.729Z,86.16
2023-09-23T17:10:21.757Z,86.43
2023-09-23T17:11:21.900Z,86.43
2023-09-23T17:12:21.960Z,86.27
2023-09-23T17:13:22.024Z,85.66
2023-09-23T17:14:22.116Z,85.56
2023-09-23T17:15:22.269Z,87.08
2023-09-23T17:16:22.352Z,87.08
2023-09-23T17:17:22.526Z,86.16
2023-09-23T17:18:22.523Z,86.16
2023-09-23T17:19:22.557Z,86.68
2023-09-23T17:20:22.669Z,87.08
2023-09-23T17:21:22.830Z,86.77
2023-09-23T17:22:22.813Z,87.02
2023-09-23T17:23:22.908Z,87.73
2023-09-23T17:24:22.983Z,88.34
2023-09-23T17:25:23.102Z,87.52
2023-09-23T17:26:23.228Z,88.44
2023-09-23T17:27:23.274Z,88.13
2023-09-23T17:28:23.329Z,87.97
2023-09-23T17:29:23.434Z,88.78
2023-09-23T17:30:23.501Z,89.29
2023-09-23T17:31:23.609Z,89.29
2023-09-23T17:32:23.724Z,89.39
2023-09-23T17:33:23.859Z,89.39
2023-09-23T17:34:23.879Z,88.18
2023-09-23T17:35:23.938Z,88.07
2023-09-23T17:36:24.042Z,88.28
2023-09-23T17:37:24.098Z,88.28
2023-09-23T17:38:24.213Z,87.67
2023-09-23T17:39:24.261Z,88.38
2023-09-23T17:40:24.297Z,89.19
2023-09-23T17:41:24.420Z,88.99
2023-09-23T17:42:24.494Z,88.68
2023-09-23T17:43:24.627Z,88.48
2023-09-23T17:44:24.673Z,88.58
2023-09-23T17:45:24.738Z,88.07
2023-09-23T17:46:24.860Z,88.58
2023-09-23T17:47:24.982Z,88.99
2023-09-23T17:48:25.036Z,88.58
2023-09-23T17:49:25.034Z,86.86
2023-09-23T17:50:25.206Z,86.86
2023-09-23T17:51:25.200Z,87.77
2023-09-23T17:52:25.287Z,88.07
2023-09-23T17:53:25.417Z,88.28
2023-09-23T17:54:25.463Z,88.18
2023-09-23T17:55:25.505Z,88.68
2023-09-23T17:56:25.660Z,89.09
2023-09-23T17:57:25.669Z,87.97
2023-09-23T17:58:25.747Z,89.09
2023-09-23T17:59:25.834Z,87.77
2023-09-23T18:00:25.909Z,87.06
2023-09-23T18:01:26.028Z,87.16
2023-09-23T18:02:26.257Z,87.77
2023-09-23T18:03:26.340Z,86.91
2023-09-23T18:04:26.425Z,87.06
2023-09-23T18:05:26.347Z,88.07
2023-09-23T18:06:26.401Z,88.18
2023-09-23T18:07:26.486Z,88.28
2023-09-23T18:08:26.605Z,88.48
2023-09-23T18:09:26.662Z,87.97
2023-09-23T18:10:26.728Z,88.07
2023-09-23T18:11:26.839Z,88.58
2023-09-23T18:12:26.931Z,87.97
2023-09-23T18:13:26.971Z,88.07
2023-09-23T18:14:27.072Z,87.87
2023-09-23T18:15:27.095Z,87.87
2023-09-23T18:16:27.227Z,87.87
2023-09-23T18:17:27.414Z,88.38
2023-09-23T18:18:27.397Z,87.77
2023-09-23T18:19:27.419Z,87.67
2023-09-23T18:20:27.556Z,88.68
2023-09-23T18:21:27.564Z,88.89
2023-09-23T18:22:27.677Z,88.28
2023-09-23T18:23:27.962Z,88.38
2023-09-23T18:24:27.890Z,88.78
2023-09-23T18:25:27.879Z,87.87
2023-09-23T18:26:27.984Z,87.97
2023-09-23T18:27:28.184Z,88.28
2023-09-23T18:28:28.138Z,88.38
2023-09-23T18:29:28.251Z,88.48
2023-09-23T18:30:28.294Z,88.68
2023-09-23T18:31:28.387Z,88.38
2023-09-23T18:32:28.548Z,88.58
2023-09-23T18:33:28.680Z,88.58
2023-09-23T18:34:28.722Z,87.87
2023-09-23T18:35:28.808Z,87.67
2023-09-23T18:36:28.814Z,87.67
2023-09-23T18:37:28.868Z,88.07
2023-09-23T18:38:29.009Z,88.07
2023-09-23T18:39:29.055Z,88.78
2023-09-23T18:40:29.112Z,88.99
2023-09-23T18:41:29.207Z,89.19
2023-09-23T18:42:29.272Z,88.68
2023-09-23T18:43:29.364Z,89.39
2023-09-23T18:44:29.518Z,90.25
2023-09-23T18:45:29.572Z,90.25
2023-09-23T18:46:29.597Z,90.14
2023-09-23T18:47:29.757Z,90.14
2023-09-23T18:48:32.712Z,90.25
2023-09-23T18:49:29.850Z,90.25
2023-09-23T18:50:29.986Z,90.25
2023-09-23T18:51:29.996Z,90.05
2023-09-23T18:52:30.058Z,90.14
2023-09-23T18:53:30.175Z,89.94
2023-09-23T18:54:30.225Z,89.54
2023-09-23T18:55:30.333Z,89.43
2023-09-23T18:56:30.402Z,89.23
2023-09-23T18:57:30.465Z,89.43
2023-09-23T18:58:30.551Z,89.13
